Terminal Aerodrome Forecast
Issued by NWS

Home | Current Version | Previous Version | Graphics & Text | Print | Product List | Glossary On
Versions: 1 2 3 4 5 6 7 8 9 10 11 12 13 14
000
FTUS43 KMPX 241121
TAFRNH
TAF
KRNH 241121Z 2412/2512 24012G19KT P6SM -SN SCT025 OVC040
      TEMPO 2412/2415 2SM -SN BKN025
     FM241530 29015G23KT P6SM BKN025 OVC035
     FM241700 31017G26KT P6SM BKN035
     FM250100 31012KT P6SM FEW035 BKN150
     FM250900 01004KT P6SM OVC100=

USA.gov is the U.S. government's official web portal to all federal, state and local government web resources and services.